Terminal Aerodrome Forecast
Issued by NWS

Home | Current Version | Previous Version | Text Only | Print | Product List | Glossary On
Versions: 1 2 3 4 5 6 7 8 9 10 11 12 13 14
000
FTAK31 PANC 221727
TAFAVD
TAF
PAVD 221727Z 2218/2318 VRB03KT P6SM FEW005 BKN040 OVC060
      TEMPO 2218/2221 3SM -SN BR BKN018
     FM230000 VRB03KT P6SM VCSH SCT030 OVC045
      AMD LTD TO CLD VIS AND WIND=

USA.gov is the U.S. government's official web portal to all federal, state and local government web resources and services.